createdAt,value
2017-07-22T00:01:40.318Z,20.66
2017-07-22T00:04:07.705Z,20.56
2017-07-22T00:06:35.095Z,20.60
2017-07-22T00:09:02.484Z,20.62
2017-07-22T00:11:29.866Z,20.65
2017-07-22T00:13:57.298Z,20.66
2017-07-22T00:16:24.911Z,20.71
2017-07-22T00:18:52.297Z,20.49
2017-07-22T00:21:19.679Z,20.47
2017-07-22T00:23:47.070Z,20.41
2017-07-22T00:26:14.459Z,20.43
2017-07-22T00:28:41.855Z,20.26
2017-07-22T00:31:09.234Z,20.26
2017-07-22T00:33:36.626Z,20.24
2017-07-22T00:36:04.226Z,20.22
2017-07-22T00:38:31.616Z,20.18
2017-07-22T00:40:59.003Z,20.02
2017-07-22T00:43:26.394Z,20.13
2017-07-22T00:45:53.810Z,20.04
2017-07-22T00:48:21.208Z,20.07
2017-07-22T00:50:48.587Z,20.11
2017-07-22T00:53:15.974Z,20.12
2017-07-22T00:55:43.371Z,20.26
2017-07-22T00:58:10.781Z,20.13
2017-07-22T01:00:38.169Z,20.07
2017-07-22T01:03:05.558Z,20.01
2017-07-22T01:05:32.949Z,19.97
2017-07-22T01:08:00.336Z,20.08
2017-07-22T01:12:52.926Z,20.10
2017-07-22T01:15:20.317Z,20.13
2017-07-22T01:17:47.703Z,20.07
2017-07-22T01:20:15.091Z,19.95
2017-07-22T01:22:42.495Z,20.05
2017-07-22T01:25:09.887Z,20.01
2017-07-22T01:27:37.270Z,19.92
2017-07-22T01:30:04.672Z,20.04
2017-07-22T01:32:32.058Z,19.96
2017-07-22T01:34:59.451Z,20.00
2017-07-22T01:37:26.838Z,19.93
2017-07-22T01:39:54.238Z,19.92
2017-07-22T01:42:21.637Z,19.86
2017-07-22T01:44:49.035Z,19.86
2017-07-22T01:47:16.410Z,19.92
2017-07-22T01:49:43.811Z,19.94
2017-07-22T01:52:11.191Z,19.85
2017-07-22T01:54:38.596Z,19.77
2017-07-22T01:57:05.986Z,19.76
2017-07-22T01:59:33.382Z,19.78
2017-07-22T02:02:00.766Z,19.76
2017-07-22T02:04:28.163Z,19.83
2017-07-22T02:06:55.549Z,19.81
2017-07-22T02:09:22.947Z,19.83
2017-07-22T02:11:50.336Z,19.87
2017-07-22T02:14:17.743Z,19.80
2017-07-22T02:16:46.014Z,19.81
2017-07-22T02:19:13.406Z,19.92
2017-07-22T02:21:40.810Z,19.92
2017-07-22T02:24:08.194Z,19.92
2017-07-22T02:26:35.573Z,19.82
2017-07-22T02:29:02.970Z,19.94
2017-07-22T02:31:30.363Z,19.89
2017-07-22T02:33:57.759Z,20.08
2017-07-22T02:36:25.156Z,20.10
2017-07-22T02:38:52.548Z,20.21
2017-07-22T02:41:19.930Z,20.28
2017-07-22T02:43:47.316Z,20.28
2017-07-22T02:46:14.711Z,20.24
2017-07-22T02:48:42.103Z,20.24
2017-07-22T02:51:09.495Z,20.26
2017-07-22T02:53:36.895Z,20.16
2017-07-22T02:56:04.287Z,20.08
2017-07-22T02:58:31.675Z,20.21
2017-07-22T03:00:59.067Z,20.15
2017-07-22T03:03:26.454Z,19.98
2017-07-22T03:05:53.849Z,19.99
2017-07-22T03:08:21.245Z,20.05
2017-07-22T03:10:48.630Z,20.03
2017-07-22T03:13:16.012Z,20.05
2017-07-22T03:15:43.415Z,20.08
2017-07-22T03:18:10.817Z,19.99
2017-07-22T03:20:38.202Z,19.97
2017-07-22T03:23:05.590Z,20.03
2017-07-22T03:25:32.983Z,20.05
2017-07-22T03:28:00.378Z,20.13
2017-07-22T03:30:28.045Z,20.10
2017-07-22T03:32:55.427Z,20.09
2017-07-22T03:35:22.815Z,20.24
2017-07-22T03:37:50.199Z,20.12
2017-07-22T03:40:17.871Z,20.12
2017-07-22T03:42:45.462Z,20.19
2017-07-22T03:45:12.867Z,20.10
2017-07-22T03:47:40.251Z,20.17
2017-07-22T03:50:07.900Z,20.20
2017-07-22T03:52:41.043Z,20.19
2017-07-22T03:55:08.450Z,20.19
2017-07-22T03:57:35.832Z,20.26
2017-07-22T04:00:03.234Z,20.32
2017-07-22T04:02:30.618Z,20.31
2017-07-22T04:04:58.014Z,20.39
2017-07-22T04:07:25.412Z,20.29
2017-07-22T04:09:53.011Z,20.28
2017-07-22T04:12:20.405Z,20.25
2017-07-22T04:14:47.793Z,20.31
2017-07-22T04:17:15.186Z,20.20
2017-07-22T04:19:42.570Z,20.26
2017-07-22T04:22:09.968Z,20.27
2017-07-22T04:24:37.359Z,20.38
2017-07-22T04:27:04.759Z,20.42
2017-07-22T04:29:32.153Z,20.38
2017-07-22T04:31:59.543Z,20.37
2017-07-22T04:34:26.932Z,20.41
2017-07-22T04:36:54.327Z,20.31
2017-07-22T04:39:21.710Z,20.34
2017-07-22T04:41:49.105Z,20.40
2017-07-22T04:44:16.716Z,20.45
2017-07-22T04:46:44.116Z,20.39
2017-07-22T04:49:11.719Z,20.46
2017-07-22T04:51:39.118Z,20.53
2017-07-22T04:54:06.502Z,20.55
2017-07-22T04:56:33.903Z,20.59
2017-07-22T04:59:01.287Z,20.64
2017-07-22T05:01:28.681Z,20.75
2017-07-22T05:03:56.066Z,20.74
2017-07-22T05:06:23.768Z,20.88
2017-07-22T05:08:51.149Z,20.95
2017-07-22T05:11:18.554Z,20.99
2017-07-22T05:13:45.952Z,20.97
2017-07-22T05:16:13.363Z,20.99
2017-07-22T05:18:40.751Z,20.97
2017-07-22T05:21:08.408Z,20.93
2017-07-22T05:23:35.798Z,20.82
2017-07-22T05:26:03.191Z,20.73
2017-07-22T05:28:30.592Z,20.78
2017-07-22T05:30:57.988Z,20.79
2017-07-22T05:33:25.380Z,20.83
2017-07-22T05:35:52.768Z,20.88
2017-07-22T05:38:20.166Z,20.94
2017-07-22T05:40:47.550Z,20.89
2017-07-22T05:43:14.950Z,20.83
2017-07-22T05:45:42.342Z,20.87
2017-07-22T05:48:09.754Z,20.86
2017-07-22T05:50:37.146Z,20.93
2017-07-22T05:53:04.546Z,20.81
2017-07-22T05:55:31.943Z,20.76
2017-07-22T05:57:59.339Z,20.83
2017-07-22T06:00:26.740Z,20.93
2017-07-22T06:02:54.135Z,20.80
2017-07-22T06:05:21.530Z,20.76
2017-07-22T06:07:48.927Z,20.68
2017-07-22T06:10:16.615Z,20.72
2017-07-22T06:12:44.018Z,20.74
2017-07-22T06:15:11.429Z,20.72
2017-07-22T06:17:38.827Z,20.75
2017-07-22T06:20:06.227Z,20.79
2017-07-22T06:22:33.625Z,20.89
2017-07-22T06:25:01.022Z,20.77
2017-07-22T06:27:28.707Z,20.83
2017-07-22T06:29:56.107Z,20.92
2017-07-22T06:32:23.527Z,20.94
2017-07-22T06:34:50.923Z,21.03
2017-07-22T06:37:18.315Z,20.96
2017-07-22T06:39:45.719Z,21.05
2017-07-22T06:42:13.346Z,21.02
2017-07-22T06:44:40.746Z,21.06
2017-07-22T06:47:08.355Z,21.02
2017-07-22T06:49:35.758Z,20.99
2017-07-22T06:52:03.154Z,21.05
2017-07-22T06:54:30.559Z,20.98
2017-07-22T06:56:57.942Z,21.04
2017-07-22T06:59:25.344Z,21.07
2017-07-22T07:01:52.734Z,21.28
2017-07-22T07:04:20.130Z,21.11
2017-07-22T07:06:47.535Z,21.13
2017-07-22T07:09:14.999Z,21.23
2017-07-22T07:11:42.374Z,21.29
2017-07-22T07:14:09.775Z,21.30
2017-07-22T07:16:37.171Z,21.27
2017-07-22T07:19:04.597Z,21.25
2017-07-22T07:21:31.966Z,21.39
2017-07-22T07:23:59.367Z,21.40
2017-07-22T07:26:26.754Z,21.41
2017-07-22T07:28:54.154Z,21.51
2017-07-22T07:31:21.547Z,21.48
2017-07-22T07:33:48.944Z,21.47
2017-07-22T07:36:16.339Z,21.60
2017-07-22T07:38:43.737Z,21.62
2017-07-22T07:41:11.118Z,21.71
2017-07-22T07:43:38.506Z,21.73
2017-07-22T07:46:05.903Z,21.78
2017-07-22T07:48:33.331Z,21.80
2017-07-22T07:51:00.771Z,21.80
2017-07-22T07:53:28.161Z,21.74
2017-07-22T07:55:55.562Z,21.84
2017-07-22T07:58:22.946Z,21.91
2017-07-22T08:00:50.342Z,21.76
2017-07-22T08:03:19.159Z,21.71
2017-07-22T08:05:46.546Z,21.75
2017-07-22T08:08:13.939Z,21.79
2017-07-22T08:10:41.338Z,21.79
2017-07-22T08:13:08.730Z,21.81
2017-07-22T08:15:36.126Z,21.74
2017-07-22T08:18:03.509Z,21.83
2017-07-22T08:20:30.919Z,21.80
2017-07-22T08:22:58.311Z,21.87
2017-07-22T08:25:25.734Z,21.81
2017-07-22T08:27:53.131Z,21.68
2017-07-22T08:30:20.564Z,21.53
2017-07-22T08:32:47.946Z,21.44
2017-07-22T08:35:15.343Z,21.56
2017-07-22T08:37:42.754Z,21.59
2017-07-22T08:40:10.458Z,21.06
2017-07-22T08:42:38.123Z,20.93
2017-07-22T08:45:05.545Z,20.67
2017-07-22T08:47:33.226Z,20.62
2017-07-22T08:50:00.635Z,20.50
2017-07-22T08:52:28.030Z,20.46
2017-07-22T08:54:55.431Z,20.46
2017-07-22T08:57:23.034Z,20.37
2017-07-22T08:59:50.717Z,20.25
2017-07-22T09:02:18.106Z,20.22
2017-07-22T09:04:45.523Z,20.32
2017-07-22T09:07:12.946Z,20.37
2017-07-22T09:09:40.353Z,20.41
2017-07-22T09:12:08.000Z,20.43
2017-07-22T09:14:35.391Z,20.39
2017-07-22T09:17:02.790Z,20.46
2017-07-22T09:19:30.185Z,20.45
2017-07-22T09:21:57.822Z,20.41
2017-07-22T09:24:25.221Z,20.41
2017-07-22T09:26:52.618Z,20.36
2017-07-22T09:29:20.016Z,20.37
2017-07-22T09:31:47.485Z,20.49
2017-07-22T09:34:14.868Z,20.46
2017-07-22T09:36:42.274Z,20.47
2017-07-22T09:39:09.675Z,20.51
2017-07-22T09:41:37.085Z,20.46
2017-07-22T09:44:04.493Z,20.44
2017-07-22T09:46:31.883Z,20.48
2017-07-22T09:48:59.278Z,20.49
2017-07-22T09:51:26.689Z,20.36
2017-07-22T09:53:54.083Z,20.36
2017-07-22T09:56:21.486Z,20.40
2017-07-22T09:58:49.034Z,20.42
2017-07-22T10:01:16.423Z,20.41
2017-07-22T10:03:43.819Z,20.49
2017-07-22T10:06:11.218Z,20.43
2017-07-22T10:08:38.618Z,20.54
2017-07-22T10:11:06.021Z,20.59
2017-07-22T10:13:33.425Z,20.48
2017-07-22T10:16:00.826Z,20.56
2017-07-22T10:18:28.218Z,20.66
2017-07-22T10:20:55.619Z,20.82
2017-07-22T10:23:23.010Z,20.97
2017-07-22T10:25:50.406Z,20.97
2017-07-22T10:28:17.822Z,21.03
2017-07-22T10:30:45.211Z,21.03
2017-07-22T10:33:12.617Z,21.04
2017-07-22T10:35:40.011Z,21.15
2017-07-22T10:38:07.415Z,21.10
2017-07-22T10:40:34.802Z,21.23
2017-07-22T10:43:02.198Z,21.31
2017-07-22T10:45:29.602Z,21.34
2017-07-22T10:47:56.989Z,21.43
2017-07-22T10:50:24.374Z,21.58
2017-07-22T10:52:51.767Z,21.63
2017-07-22T10:55:19.163Z,21.68
2017-07-22T10:57:46.551Z,21.72
2017-07-22T11:00:13.933Z,21.79
2017-07-22T11:02:41.326Z,21.77
2017-07-22T11:05:08.719Z,21.79
2017-07-22T11:07:36.115Z,21.84
2017-07-22T11:10:03.506Z,21.83
2017-07-22T11:12:30.894Z,21.99
2017-07-22T11:14:58.280Z,22.01
2017-07-22T11:17:25.666Z,21.98
2017-07-22T11:19:53.070Z,21.93
2017-07-22T11:22:20.463Z,21.90
2017-07-22T11:24:47.851Z,21.96
2017-07-22T11:27:15.250Z,21.92
2017-07-22T11:29:42.644Z,21.83
2017-07-22T11:32:10.039Z,21.90
2017-07-22T11:34:37.427Z,21.96
2017-07-22T11:37:04.816Z,21.98
2017-07-22T11:39:32.210Z,21.99
2017-07-22T11:41:59.598Z,22.08
2017-07-22T11:44:27.001Z,22.09
2017-07-22T11:46:54.386Z,22.08
2017-07-22T11:49:21.774Z,22.05
2017-07-22T11:51:49.180Z,22.19
2017-07-22T11:56:40.848Z,22.17
2017-07-22T11:59:08.495Z,22.16
2017-07-22T12:01:35.886Z,22.03
2017-07-22T12:04:03.285Z,21.89
2017-07-22T12:06:30.683Z,21.76
2017-07-22T12:08:58.319Z,21.65
2017-07-22T12:11:25.714Z,21.75
2017-07-22T12:13:53.114Z,21.87
2017-07-22T12:16:20.507Z,21.98
2017-07-22T12:18:47.906Z,22.06
2017-07-22T12:21:15.303Z,22.09
2017-07-22T12:23:42.699Z,22.21
2017-07-22T12:26:10.087Z,22.37
2017-07-22T12:28:37.474Z,22.29
2017-07-22T12:31:04.871Z,22.38
2017-07-22T12:33:32.265Z,22.37
2017-07-22T12:35:59.650Z,22.38
2017-07-22T12:38:27.054Z,22.53
2017-07-22T12:40:54.443Z,22.43
2017-07-22T12:43:21.849Z,22.49
2017-07-22T12:45:49.234Z,22.58
2017-07-22T12:48:16.650Z,22.65
2017-07-22T12:50:44.044Z,22.67
2017-07-22T12:53:11.431Z,22.64
2017-07-22T12:55:38.823Z,22.63
2017-07-22T12:58:06.216Z,22.78
2017-07-22T13:00:33.611Z,22.86
2017-07-22T13:03:00.998Z,22.89
2017-07-22T13:05:28.695Z,22.81
2017-07-22T13:07:56.079Z,22.85
2017-07-22T13:10:23.485Z,22.69
2017-07-22T13:12:50.876Z,22.75
2017-07-22T13:15:18.275Z,22.81
2017-07-22T13:17:45.665Z,22.85
2017-07-22T13:20:13.058Z,22.77
2017-07-22T13:22:40.459Z,22.86
2017-07-22T13:25:07.867Z,22.83
2017-07-22T13:27:35.336Z,22.90
2017-07-22T13:30:02.906Z,22.84
2017-07-22T13:32:30.298Z,22.94
2017-07-22T13:34:57.690Z,23.00
2017-07-22T13:37:25.124Z,23.07
2017-07-22T13:39:52.613Z,23.22
2017-07-22T13:42:20.075Z,23.29
2017-07-22T13:44:47.482Z,23.39
2017-07-22T13:47:14.880Z,23.43
2017-07-22T13:49:42.340Z,23.60
2017-07-22T13:52:09.805Z,23.59
2017-07-22T13:54:37.203Z,23.63
2017-07-22T13:57:04.657Z,23.67
2017-07-22T13:59:32.061Z,23.79
2017-07-22T14:01:59.461Z,23.84
2017-07-22T14:04:26.999Z,23.99
2017-07-22T14:06:54.399Z,24.14
2017-07-22T14:09:21.790Z,24.13
2017-07-22T14:11:49.202Z,24.00
2017-07-22T14:14:16.612Z,24.03
2017-07-22T14:16:44.010Z,24.08
2017-07-22T14:19:11.414Z,24.03
2017-07-22T14:21:38.806Z,24.04
2017-07-22T14:24:06.489Z,24.02
2017-07-22T14:26:33.895Z,23.87
2017-07-22T14:29:01.291Z,23.99
2017-07-22T14:31:28.698Z,23.98
2017-07-22T14:33:56.100Z,23.89
2017-07-22T14:36:23.519Z,23.90
2017-07-22T14:38:50.933Z,23.92
2017-07-22T14:41:18.338Z,23.94
2017-07-22T14:43:45.752Z,24.07
2017-07-22T14:46:13.172Z,24.06
2017-07-22T14:48:40.590Z,24.07
2017-07-22T14:51:07.995Z,24.19
2017-07-22T14:53:35.391Z,24.26
2017-07-22T14:56:02.802Z,24.18
2017-07-22T14:58:30.208Z,24.22
2017-07-22T15:00:57.611Z,24.19
2017-07-22T15:03:25.011Z,24.26
2017-07-22T15:05:52.430Z,24.37
2017-07-22T15:08:19.823Z,24.37
2017-07-22T15:10:47.228Z,24.26
2017-07-22T15:13:14.624Z,24.34
2017-07-22T15:15:42.032Z,24.39
2017-07-22T15:18:09.440Z,24.25
2017-07-22T15:20:36.834Z,24.27
2017-07-22T15:23:04.237Z,24.32
2017-07-22T15:25:31.639Z,24.39
2017-07-22T15:27:59.046Z,24.44
2017-07-22T15:30:26.435Z,24.59
2017-07-22T15:32:53.840Z,24.61
2017-07-22T15:35:21.246Z,24.63
2017-07-22T15:37:48.646Z,24.49
2017-07-22T15:40:16.064Z,24.38
2017-07-22T15:42:43.501Z,24.40
2017-07-22T15:45:10.883Z,24.40
2017-07-22T15:47:38.286Z,24.38
2017-07-22T15:50:05.690Z,24.21
2017-07-22T15:52:33.090Z,24.22
2017-07-22T15:55:00.488Z,24.25
2017-07-22T15:57:27.892Z,24.28
2017-07-22T15:59:55.287Z,24.21
2017-07-22T16:02:22.711Z,24.26
2017-07-22T16:04:50.103Z,24.30
2017-07-22T16:07:17.508Z,24.19
2017-07-22T16:09:44.902Z,24.28
2017-07-22T16:12:12.311Z,24.33
2017-07-22T16:14:39.706Z,24.25
2017-07-22T16:17:07.105Z,24.19
2017-07-22T16:19:34.508Z,24.30
2017-07-22T16:22:02.090Z,24.44
2017-07-22T16:24:29.470Z,24.43
2017-07-22T16:26:56.867Z,24.34
2017-07-22T16:29:24.258Z,24.36
2017-07-22T16:31:51.675Z,24.32
2017-07-22T16:34:19.067Z,24.36
2017-07-22T16:36:46.462Z,24.39
2017-07-22T16:39:13.869Z,24.39
2017-07-22T16:41:41.262Z,24.33
2017-07-22T16:44:08.658Z,24.28
2017-07-22T16:46:36.053Z,24.32
2017-07-22T16:49:03.462Z,24.39
2017-07-22T16:51:30.846Z,24.34
2017-07-22T16:53:58.287Z,24.30
2017-07-22T16:56:25.684Z,24.21
2017-07-22T16:58:53.091Z,24.23
2017-07-22T17:01:20.506Z,24.18
2017-07-22T17:03:47.920Z,24.23
2017-07-22T17:06:15.320Z,24.16
2017-07-22T17:08:42.722Z,24.20
2017-07-22T17:11:10.132Z,24.18
2017-07-22T17:13:37.531Z,24.15
2017-07-22T17:16:04.912Z,24.14
2017-07-22T17:18:32.313Z,24.28
2017-07-22T17:20:59.701Z,24.21
2017-07-22T17:23:27.104Z,24.07
2017-07-22T17:25:54.504Z,24.17
2017-07-22T17:28:21.903Z,24.14
2017-07-22T17:30:49.299Z,24.15
2017-07-22T17:33:16.698Z,24.11
2017-07-22T17:35:44.109Z,24.19
2017-07-22T17:38:11.516Z,24.01
2017-07-22T17:40:38.931Z,24.07
2017-07-22T17:43:06.330Z,23.98
2017-07-22T17:45:33.727Z,24.04
2017-07-22T17:48:01.151Z,24.04
2017-07-22T17:50:28.546Z,24.08
2017-07-22T17:52:55.946Z,23.88
2017-07-22T17:55:23.348Z,23.82
2017-07-22T17:57:50.742Z,23.88
2017-07-22T18:00:18.151Z,23.83
2017-07-22T18:02:45.544Z,23.83
2017-07-22T18:05:12.943Z,23.85
2017-07-22T18:07:40.339Z,23.97
2017-07-22T18:10:07.747Z,23.91
2017-07-22T18:12:35.151Z,23.77
2017-07-22T18:15:02.559Z,23.86
2017-07-22T18:17:29.951Z,23.85
2017-07-22T18:19:57.363Z,23.83
2017-07-22T18:22:24.770Z,23.93
2017-07-22T18:24:52.171Z,23.85
2017-07-22T18:27:19.567Z,23.71
2017-07-22T18:29:46.965Z,23.52
2017-07-22T18:32:14.366Z,23.59
2017-07-22T18:34:41.771Z,23.51
2017-07-22T18:37:09.173Z,23.48
2017-07-22T18:39:36.579Z,23.49
2017-07-22T18:42:03.982Z,23.45
2017-07-22T18:44:31.370Z,23.35
2017-07-22T18:46:58.766Z,23.36
2017-07-22T18:49:26.166Z,23.18
2017-07-22T18:51:53.567Z,23.29
2017-07-22T18:54:20.976Z,23.40
2017-07-22T18:56:48.370Z,23.41
2017-07-22T18:59:15.767Z,23.29
2017-07-22T19:01:43.170Z,23.24
2017-07-22T19:04:10.604Z,23.15
2017-07-22T19:06:38.024Z,23.20
2017-07-22T19:09:05.418Z,23.21
2017-07-22T19:11:32.819Z,23.24
2017-07-22T19:14:00.222Z,23.24
2017-07-22T19:16:27.631Z,23.21
2017-07-22T19:18:55.030Z,23.17
2017-07-22T19:21:22.427Z,23.12
2017-07-22T19:23:49.852Z,23.04
2017-07-22T19:26:17.259Z,22.91
2017-07-22T19:28:44.663Z,23.00
2017-07-22T19:31:12.076Z,23.00
2017-07-22T19:33:39.487Z,22.97
2017-07-22T19:36:06.891Z,23.01
2017-07-22T19:38:34.294Z,23.07
2017-07-22T19:41:01.698Z,23.02
2017-07-22T19:43:29.086Z,23.03
2017-07-22T19:45:56.481Z,22.92
2017-07-22T19:48:23.882Z,22.96
2017-07-22T19:50:51.292Z,22.92
2017-07-22T19:53:18.686Z,22.88
2017-07-22T19:55:46.090Z,22.94
2017-07-22T19:58:13.491Z,22.97
2017-07-22T20:00:40.910Z,22.86
2017-07-22T20:03:08.344Z,22.85
2017-07-22T20:05:35.745Z,22.76
2017-07-22T20:08:03.148Z,22.86
2017-07-22T20:10:30.574Z,22.81
2017-07-22T20:12:57.950Z,22.79
2017-07-22T20:15:25.623Z,22.95
2017-07-22T20:17:53.014Z,23.09
2017-07-22T20:20:20.438Z,22.92
2017-07-22T20:22:47.826Z,23.04
2017-07-22T20:25:15.231Z,22.98
2017-07-22T20:27:42.630Z,22.95
2017-07-22T20:30:10.046Z,22.86
2017-07-22T20:32:37.454Z,22.85
2017-07-22T20:35:04.862Z,22.90
2017-07-22T20:37:32.269Z,22.89
2017-07-22T20:39:59.686Z,22.76
2017-07-22T20:42:27.083Z,22.73
2017-07-22T20:44:54.899Z,22.69
2017-07-22T20:47:22.298Z,22.67
2017-07-22T20:49:49.718Z,22.66
2017-07-22T20:52:17.113Z,22.71
2017-07-22T20:54:44.510Z,22.78
2017-07-22T20:57:11.918Z,22.75
2017-07-22T20:59:39.309Z,22.72
2017-07-22T21:02:06.706Z,22.65
2017-07-22T21:04:34.098Z,22.63
2017-07-22T21:07:01.514Z,22.47
2017-07-22T21:09:28.911Z,22.33
2017-07-22T21:11:56.310Z,22.16
2017-07-22T21:14:23.711Z,22.10
2017-07-22T21:16:51.112Z,22.10
2017-07-22T21:19:18.507Z,22.01
2017-07-22T21:21:45.918Z,21.94
2017-07-22T21:24:13.336Z,21.86
2017-07-22T21:26:40.739Z,21.80
2017-07-22T21:29:08.150Z,21.87
2017-07-22T21:31:35.858Z,21.96
2017-07-22T21:34:03.256Z,21.97
2017-07-22T21:36:30.664Z,21.81
2017-07-22T21:38:58.331Z,21.60
2017-07-22T21:41:25.727Z,21.52
2017-07-22T21:43:53.137Z,21.58
2017-07-22T21:46:20.537Z,21.57
2017-07-22T21:48:47.935Z,21.59
2017-07-22T21:51:15.339Z,21.43
2017-07-22T21:53:42.755Z,21.28
2017-07-22T21:56:10.134Z,21.25
2017-07-22T21:58:37.571Z,21.31
2017-07-22T22:01:04.955Z,21.43
2017-07-22T22:03:32.587Z,21.43
2017-07-22T22:06:00.251Z,21.36
2017-07-22T22:08:27.666Z,21.21
2017-07-22T22:10:55.065Z,21.19
2017-07-22T22:13:22.480Z,21.11
2017-07-22T22:15:49.899Z,21.14
2017-07-22T22:18:17.332Z,21.24
2017-07-22T22:20:44.727Z,21.25
2017-07-22T22:23:12.442Z,21.31
2017-07-22T22:25:39.853Z,21.38
2017-07-22T22:28:07.272Z,21.25
2017-07-22T22:30:34.670Z,21.22
2017-07-22T22:33:02.086Z,21.27
2017-07-22T22:35:29.470Z,21.27
2017-07-22T22:37:56.878Z,21.25
2017-07-22T22:40:24.275Z,21.33
2017-07-22T22:42:51.687Z,21.37
2017-07-22T22:45:19.082Z,21.37
2017-07-22T22:47:46.489Z,21.21
2017-07-22T22:50:13.899Z,21.10
2017-07-22T22:52:41.307Z,21.10
2017-07-22T22:55:08.704Z,21.18
2017-07-22T22:57:36.098Z,21.11
2017-07-22T23:00:03.519Z,21.06
2017-07-22T23:02:30.926Z,21.03
2017-07-22T23:04:58.327Z,20.96
2017-07-22T23:07:25.718Z,20.92
2017-07-22T23:09:53.127Z,20.94
2017-07-22T23:12:20.519Z,20.86
2017-07-22T23:14:48.216Z,20.89
2017-07-22T23:17:15.619Z,20.90
2017-07-22T23:19:43.022Z,21.01
2017-07-22T23:22:10.425Z,21.10
2017-07-22T23:24:37.826Z,21.01
2017-07-22T23:27:05.224Z,20.95
2017-07-22T23:29:32.618Z,20.94
2017-07-22T23:32:00.012Z,20.90
2017-07-22T23:34:27.427Z,20.83
2017-07-22T23:36:54.819Z,20.88
2017-07-22T23:39:22.225Z,20.88
2017-07-22T23:41:49.620Z,20.89
2017-07-22T23:44:17.023Z,20.90
2017-07-22T23:46:45.390Z,20.87
2017-07-22T23:49:13.019Z,20.76
2017-07-22T23:51:40.410Z,20.79
2017-07-22T23:54:07.814Z,20.81
2017-07-22T23:56:35.217Z,20.79
2017-07-22T23:59:02.630Z,20.84
